Terminal Aerodrome Forecast
Issued by NWS Jackson, MS

Current Version | Previous Version | Text Only | Print | Product List | Glossary On
Versions: 1 2 3 4 5 6 7 8 9 10 11 12 13 14 15 16 17
000
FTUS44 KMEG 251700
TAFTUP
TAF
KTUP 251737Z 2518/2618 VRB03KT P6SM SKC
     FM260100 00000KT P6SM SKC
      TEMPO 2610/2612 3SM BR
     FM261600 24006KT P6SM SKC=

USA.gov is the U.S. government's official web portal to all federal, state and local government web resources and services.